Waterloo Airport
CYKF : now visible

Airfield :











YOU CAN JOIN US ON...

 
LOGIN :

Register | Disclaimer

   EN    FR    IT 

 









Legend :    VFR   Marginal VFR   IFR   Intensive IFR   Very Intensive IFR
Visi :
Ceiling :
>= 8 km
>= 3000ft
5 to 8 km
1000 to 3000 ft
1500m to 5 km
500 to 1000 ft
800 to 1500m
200 to 500 ft
< 800m
< 200 ft
Symbols :   Thunderstorms  Fog  Heavy snow  Heavy precipitations  Wind > 20 kt







- Airport Elevation : 1054 ft
- IATA code : YKF


CYKF - Waterloo

CURRENT METAR :
  • 160215Z AUTO 33003KT 6SM BR OVC020 15/14 A2987 RMK SLP116 DENSITY ALT 1300FT

EXPIRED METARs :
  • 160128Z AUTO VRB02KT 6SM BR OVC020 15/15 A2986 RMK SLP112 DENSITY ALT 1400FT
  • 160113Z AUTO 00000KT 5SM BR OVC022 15/15 A2985 RMK SLP110 DENSITY ALT 1400FT
  • 160058Z AUTO 00000KT 5SM BR OVC022 15/15 A2985 RMK SLP109 DENSITY ALT 1400FT
  • 160040Z AUTO 31003KT 4SM BR OVC020 15/15 A2985 RMK SLP109 DENSITY ALT 1400FT
  • 160017Z AUTO 32003KT 6SM BR FEW005 SCT008 OVC020 16/15 A2985 RMK SLP108 DENSITY ALT 1400FT
  • 160005Z AUTO 33003KT 3SM BR BKN008 OVC018 16/15 A2985 RMK SLP109 DENSITY ALT 1400FT
  • 152354Z AUTO 34003KT 2SM BR FEW005 BKN008 OVC016 16/15 A2985 RMK SLP109 DENSITY ALT 1400FT
  • 152338Z AUTO 31004KT 2 1/2SM BR OVC016 16/15 A2985 RMK SLP108 DENSITY ALT 1400FT

TAF TAF CYKF
Valid from the 16 at 02:00 until the 16 at 14:00 UTC


160138Z 1602/1614 33005KT P6SM -SHRA OVC025
TEMPO 1602/1608 2SM -SHRA BR BKN006 OVC020
PROB30 1602/1608 BKN005
FM160800 07008KT P6SM BKN025
TEMPO 1608/1614 BKN015 RMK FCST BASED ON AUTO OBS. NXT FCST BY 160800Z
CZYZ FIR / North America



MET'MAP, your aeronautical weather chart ! - Copyright ORBIFLY December 2007 - Disclaimer

ORBIFLY MET'MAP TEAM :

Programming & Development : Alexandra Zaïnal
Concept & Development : Baudouin d'Aumeries
Co-Development & Prog : Marc-Olivier Méhu
Technical & hardware support : Manuel Goepfert

Contact : metmap@orbifly.com




SOURCES & CREDITS :

   NOAA       Earth
Advisory